Time;durP1;ratioP1;P1;durP2;ratioP2;P2;SDS_P1;SDS_P2;PMS_P1;PMS_P2;Temp;Humidity;BMP_temperature;BMP_pressure;BME280_temperature;BME280_humidity;BME280_pressure;Samples;Min_cycle;Max_cycle;Signal;HPM_P1;HPM_P2
2021/10/09 00:00:21;;;;;;;2.85;2.05;;;8.20;5.00;;;;;;4996756;28;20035;-70
2021/10/09 00:02:47;;;;;;;2.50;2.13;;;8.20;8.10;;;;;;4997521;28;20034;-70
2021/10/09 00:05:13;;;;;;;4.13;2.03;;;8.20;1.10;;;;;;4996475;28;20030;-70
2021/10/09 00:07:38;;;;;;;2.55;2.03;;;8.20;3.20;;;;;;4995878;28;20050;-70
2021/10/09 00:10:07;;;;;;;3.28;2.33;;;8.10;6.90;;;;;;4996948;28;20387;-70
2021/10/09 00:12:33;;;;;;;5.70;2.50;;;8.10;8.10;;;;;;4996519;28;20042;-70
2021/10/09 00:15:00;;;;;;;6.35;2.30;;;8.20;9.80;;;;;;4996605;28;20069;-70
2021/10/09 00:17:28;;;;;;;2.75;2.13;;;8.20;6.60;;;;;;4996420;28;20057;-70
2021/10/09 00:19:54;;;;;;;2.65;2.10;;;8.20;4.70;;;;;;4996219;28;20042;-70
2021/10/09 00:22:20;;;;;;;6.03;2.10;;;8.20;5.50;;;;;;4996208;28;20490;-70
2021/10/09 00:24:46;;;;;;;1.95;1.73;;;8.20;5.00;;;;;;4996113;28;20041;-70
2021/10/09 00:27:13;;;;;;;2.33;1.77;;;8.10;4.00;;;;;;4978994;28;20050;-70
2021/10/09 00:29:39;;;;;;;3.55;2.25;;;8.00;2.60;;;;;;4996480;28;20626;-70
2021/10/09 00:32:06;;;;;;;2.45;2.10;;;7.90;6.50;;;;;;4995808;28;20046;-70
2021/10/09 00:34:31;;;;;;;2.53;2.00;;;7.80;6.90;;;;;;4996521;28;20038;-70
2021/10/09 00:36:57;;;;;;;3.55;2.15;;;7.90;10.20;;;;;;4996105;28;20046;-70
2021/10/09 00:39:23;;;;;;;3.13;2.15;;;7.90;4.50;;;;;;4996200;28;20042;-70
2021/10/09 00:41:49;;;;;;;3.10;2.15;;;7.80;4.00;;;;;;4996105;28;20038;-70
2021/10/09 00:44:16;;;;;;;3.67;2.08;;;7.80;7.50;;;;;;4995637;28;20058;-70
2021/10/09 00:46:43;;;;;;;3.65;2.20;;;7.90;5.50;;;;;;4995250;28;20038;-70
2021/10/09 00:49:16;;;;;;;3.13;2.10;;;7.90;3.30;;;;;;4996050;28;20132;-70
2021/10/09 00:51:47;;;;;;;5.72;2.33;;;7.90;5.10;;;;;;4995807;28;20046;-70
2021/10/09 00:54:14;;;;;;;2.75;1.95;;;7.80;5.10;;;;;;4995581;28;20116;-70
2021/10/09 00:56:41;;;;;;;2.53;2.08;;;7.70;5.40;;;;;;4995182;28;20129;-70
2021/10/09 00:59:10;;;;;;;3.97;2.30;;;7.70;5.00;;;;;;4995862;28;20081;-70
2021/10/09 01:01:36;;;;;;;3.90;2.17;;;7.70;2.30;;;;;;4995153;28;20038;-70
2021/10/09 01:04:06;;;;;;;3.85;1.92;;;7.60;5.00;;;;;;4995718;28;20057;-70
2021/10/09 01:06:33;;;;;;;2.90;2.30;;;7.70;1.40;;;;;;4995407;28;20042;-70
2021/10/09 01:09:00;;;;;;;3.28;2.17;;;7.60;6.10;;;;;;4995720;28;20052;-70
2021/10/09 01:11:26;;;;;;;3.72;2.30;;;7.70;5.60;;;;;;4995353;28;20038;-70
2021/10/09 01:13:52;;;;;;;1.95;1.75;;;7.60;2.90;;;;;;4995316;28;20121;-70
2021/10/09 01:16:22;;;;;;;3.28;2.40;;;7.60;6.00;;;;;;4995282;28;20389;-69
2021/10/09 01:18:53;;;;;;;3.10;2.20;;;7.50;5.90;;;;;;4994785;28;20050;-70
2021/10/09 01:21:20;;;;;;;2.88;2.00;;;7.40;7.20;;;;;;4995212;28;20583;-70
2021/10/09 01:23:46;;;;;;;2.53;1.75;;;7.50;9.00;;;;;;4995124;28;20128;-70
2021/10/09 01:26:13;;;;;;;1.70;1.60;;;7.50;5.80;;;;;;4995138;28;20038;-70
2021/10/09 01:28:42;;;;;;;5.45;2.17;;;7.40;7.10;;;;;;4995728;28;20076;-70
2021/10/09 01:31:07;;;;;;;2.50;2.08;;;7.40;4.40;;;;;;4994669;28;20034;-70
2021/10/09 01:33:33;;;;;;;4.05;2.25;;;7.40;7.30;;;;;;4995383;28;20049;-70
2021/10/09 01:35:59;;;;;;;2.88;1.90;;;7.30;2.90;;;;;;4995247;28;20038;-69
2021/10/09 01:38:27;;;;;;;2.10;1.90;;;7.30;9.10;;;;;;4995170;28;20086;-70
2021/10/09 01:40:54;;;;;;;2.83;1.73;;;7.30;6.80;;;;;;4994933;28;20046;-70
2021/10/09 01:43:22;;;;;;;4.68;2.38;;;7.30;6.20;;;;;;4995046;28;20084;-70
2021/10/09 01:45:48;;;;;;;4.03;2.17;;;7.30;3.80;;;;;;4977826;28;20367;-70
2021/10/09 01:48:15;;;;;;;2.75;2.35;;;7.30;9.50;;;;;;4995044;28;20046;-70
2021/10/09 01:50:42;;;;;;;2.65;1.88;;;7.30;8.20;;;;;;4994992;28;20030;-70
2021/10/09 01:53:08;;;;;;;3.05;2.13;;;7.40;6.70;;;;;;4995516;28;20041;-70
2021/10/09 01:55:39;;;;;;;5.35;2.15;;;7.40;2.20;;;;;;4994915;28;20068;-70
2021/10/09 01:58:05;;;;;;;3.10;1.70;;;7.30;3.80;;;;;;4994768;28;20046;-70
2021/10/09 02:00:33;;;;;;;3.10;1.70;;;7.30;3.20;;;;;;4995232;28;20042;-69
2021/10/09 02:03:04;;;;;;;6.20;2.63;;;7.50;2.60;;;;;;4995175;28;20038;-70
2021/10/09 02:05:31;;;;;;;3.22;2.20;;;7.40;1.00;;;;;;4995642;28;20117;-70
2021/10/09 02:07:57;;;;;;;3.67;2.35;;;7.40;4.70;;;;;;4994782;28;20124;-69
2021/10/09 02:10:23;;;;;;;2.30;2.10;;;7.30;1.10;;;;;;4995767;28;20060;-69
2021/10/09 02:12:50;;;;;;;2.20;2.00;;;7.20;4.80;;;;;;4994686;28;20494;-70
2021/10/09 02:15:39;;;;;;;4.03;1.58;;;7.30;2.90;;;;;;4995274;28;20560;-70
2021/10/09 02:26:14;;;;;;;3.15;2.30;;;7.40;1.00;;;;;;4994615;28;20038;-70
2021/10/09 02:28:39;;;;;;;2.83;2.20;;;7.40;6.50;;;;;;4993850;28;20042;-69
2021/10/09 02:31:05;;;;;;;8.27;2.42;;;7.30;4.50;;;;;;4996267;28;20078;-70
2021/10/09 02:33:31;;;;;;;4.90;2.30;;;7.30;4.40;;;;;;4998778;28;20042;-70
2021/10/09 02:35:57;;;;;;;2.80;1.88;;;7.30;3.50;;;;;;4998488;28;20042;-70
2021/10/09 02:38:23;;;;;;;3.35;2.10;;;7.20;4.90;;;;;;4998099;28;20486;-70
2021/10/09 02:40:49;;;;;;;2.75;2.30;;;7.20;8.90;;;;;;4998321;28;20058;-69
2021/10/09 02:43:15;;;;;;;2.10;1.90;;;7.10;9.70;;;;;;4998720;28;20433;-69
2021/10/09 02:45:41;;;;;;;3.33;2.05;;;7.10;10.30;;;;;;4998335;28;20121;-69
2021/10/09 02:48:08;;;;;;;3.15;2.15;;;7.10;11.30;;;;;;4998557;28;20133;-70
2021/10/09 02:50:34;;;;;;;3.92;1.88;;;7.10;10.90;;;;;;4998077;28;20035;-69
2021/10/09 02:53:00;;;;;;;2.60;1.98;;;7.10;11.50;;;;;;4998688;28;20041;-69
2021/10/09 02:55:26;;;;;;;4.20;2.30;;;7.10;7.60;;;;;;4997991;28;20042;-70
2021/10/09 02:57:52;;;;;;;2.72;1.95;;;7.30;7.60;;;;;;4998330;28;20481;-69
2021/10/09 03:00:20;;;;;;;2.50;2.08;;;7.50;1.00;;;;;;4997720;28;20520;-70
2021/10/09 03:02:46;;;;;;;2.10;1.90;;;7.50;1.00;;;;;;4997729;28;20117;-70
2021/10/09 03:05:12;;;;;;;3.00;1.83;;;7.40;1.00;;;;;;4997624;28;20125;-70
2021/10/09 03:07:39;;;;;;;2.55;1.85;;;7.40;1.30;;;;;;4997517;28;20042;-69
2021/10/09 03:10:07;;;;;;;2.85;2.28;;;7.40;1.00;;;;;;4997545;28;20048;-69
2021/10/09 03:12:32;;;;;;;3.97;1.98;;;7.40;2.30;;;;;;4997985;28;20069;-69
2021/10/09 03:14:59;;;;;;;2.10;1.90;;;7.40;1.00;;;;;;4997768;28;20066;-69
2021/10/09 03:17:25;;;;;;;3.33;2.22;;;7.40;3.20;;;;;;4997219;28;20042;-69
2021/10/09 03:19:51;;;;;;;1.80;1.70;;;7.40;1.10;;;;;;4997596;28;20070;-69
2021/10/09 03:22:17;;;;;;;2.85;2.03;;;7.40;1.00;;;;;;4997354;28;20049;-69
2021/10/09 03:24:43;;;;;;;2.38;2.17;;;7.40;3.00;;;;;;4997477;28;20034;-69
2021/10/09 03:27:09;;;;;;;2.65;1.90;;;7.40;4.50;;;;;;4997565;28;20046;-69
2021/10/09 03:29:35;;;;;;;2.63;2.00;;;7.50;1.50;;;;;;4998020;28;20421;-69
2021/10/09 03:32:01;;;;;;;4.00;2.00;;;7.50;5.50;;;;;;4997013;28;20042;-69
2021/10/09 03:34:32;;;;;;;2.80;2.05;;;7.50;6.80;;;;;;4997650;28;20121;-69
2021/10/09 03:37:03;;;;;;;2.42;2.20;;;7.40;6.00;;;;;;4997106;28;20053;-69
2021/10/09 03:39:29;;;;;;;;;;;7.50;5.70;;;;;;4998086;28;20125;-69
2021/10/09 03:42:04;;;;;;;2.65;1.80;;;7.60;5.30;;;;;;4996905;28;20376;-69
2021/10/09 03:44:34;;;;;;;2.25;1.75;;;7.60;3.50;;;;;;4997002;28;20054;-69
2021/10/09 03:47:13;;;;;;;2.03;1.77;;;7.60;1.00;;;;;;4996417;28;20043;-69
2021/10/09 03:50:07;;;;;;;2.05;1.83;;;7.70;1.70;;;;;;4996800;28;20254;-69
2021/10/09 03:52:41;;;;;;;2.13;1.92;;;7.80;1.00;;;;;;4996176;28;20042;-69
2021/10/09 03:55:10;;;;;;;2.40;2.05;;;7.90;1.00;;;;;;4996402;28;20054;-69
2021/10/09 03:57:37;;;;;;;2.28;1.80;;;7.90;1.00;;;;;;4996657;28;20077;-70
2021/10/09 04:00:05;;;;;;;1.98;1.77;;;7.90;1.00;;;;;;4996353;28;20505;-69
2021/10/09 04:02:30;;;;;;;3.80;2.10;;;7.90;1.00;;;;;;4996102;28;20034;-69
2021/10/09 04:04:56;;;;;;;2.85;2.00;;;8.00;1.70;;;;;;4996553;28;20519;-69
2021/10/09 04:07:22;;;;;;;4.00;1.80;;;8.00;1.20;;;;;;4996575;28;20042;-69
2021/10/09 04:09:48;;;;;;;2.25;1.58;;;8.00;1.00;;;;;;4996695;28;20042;-69
2021/10/09 04:12:14;;;;;;;3.25;1.88;;;8.00;1.00;;;;;;4996159;28;20130;-69
2021/10/09 04:14:40;;;;;;;3.75;1.90;;;8.10;1.00;;;;;;4996057;28;20038;-69
2021/10/09 04:17:06;;;;;;;3.33;2.00;;;8.20;1.00;;;;;;4995956;28;20030;-69
2021/10/09 04:19:33;;;;;;;2.17;1.88;;;8.10;1.00;;;;;;4996602;28;20045;-69
2021/10/09 04:21:58;;;;;;;1.98;1.77;;;8.10;1.00;;;;;;4995930;28;20038;-69
2021/10/09 04:24:24;;;;;;;2.83;2.00;;;8.10;1.00;;;;;;4996170;28;20042;-69
2021/10/09 04:26:51;;;;;;;4.22;1.70;;;8.10;1.00;;;;;;4996094;28;20034;-69
2021/10/09 04:29:17;;;;;;;2.90;2.20;;;8.10;1.00;;;;;;4995954;28;20041;-69
2021/10/09 04:31:43;;;;;;;2.00;1.80;;;8.20;1.00;;;;;;4996062;28;20042;-69
2021/10/09 04:34:09;;;;;;;2.33;1.88;;;8.30;1.00;;;;;;4995979;28;20034;-69
2021/10/09 04:36:34;;;;;;;3.03;1.67;;;8.20;1.00;;;;;;4995822;28;20125;-69
2021/10/09 04:39:00;;;;;;;7.82;2.47;;;8.20;1.00;;;;;;4996417;28;20393;-69
2021/10/09 04:41:26;;;;;;;4.55;1.92;;;8.20;1.00;;;;;;4995859;28;20038;-69
2021/10/09 04:43:53;;;;;;;2.65;1.88;;;8.10;1.00;;;;;;4995698;28;20062;-69
2021/10/09 04:46:19;;;;;;;2.92;2.30;;;8.00;1.00;;;;;;4996174;28;20128;-69
2021/10/09 04:48:45;;;;;;;2.55;1.67;;;8.00;1.00;;;;;;4996359;28;20073;-69
2021/10/09 04:51:11;;;;;;;1.75;1.63;;;8.00;1.10;;;;;;4995868;28;20085;-70
2021/10/09 04:53:36;;;;;;;1.92;1.70;;;7.90;1.00;;;;;;4995678;28;20046;-69
2021/10/09 04:56:02;;;;;;;2.05;1.85;;;8.00;1.00;;;;;;4995997;28;20402;-69
2021/10/09 04:58:28;;;;;;;2.33;1.73;;;8.20;1.00;;;;;;4995828;28;20050;-69
2021/10/09 05:00:54;;;;;;;2.95;1.77;;;8.20;1.00;;;;;;4995828;28;20096;-69
2021/10/09 05:03:20;;;;;;;2.05;1.83;;;8.30;1.00;;;;;;4995824;28;20095;-70
2021/10/09 05:05:46;;;;;;;3.70;2.25;;;8.40;1.00;;;;;;4995376;28;20474;-69
2021/10/09 05:08:12;;;;;;;2.40;1.65;;;8.40;1.00;;;;;;4995979;28;20042;-70
2021/10/09 05:10:39;;;;;;;2.58;2.13;;;8.40;1.00;;;;;;4995692;28;20612;-69
2021/10/09 05:13:05;;;;;;;4.20;1.80;;;8.40;1.00;;;;;;4996158;28;20038;-69
2021/10/09 05:15:32;;;;;;;3.33;2.03;;;8.40;1.00;;;;;;4995876;28;20110;-70
2021/10/09 05:17:58;;;;;;;2.17;1.98;;;8.40;1.00;;;;;;4995544;28;20042;-69
2021/10/09 05:20:24;;;;;;;5.25;2.03;;;8.30;1.00;;;;;;4995522;28;20574;-70
2021/10/09 05:22:50;;;;;;;2.13;1.80;;;8.40;1.00;;;;;;4995681;28;20038;-70
2021/10/09 05:25:16;;;;;;;2.20;2.00;;;8.50;1.00;;;;;;4995178;28;20040;-69
2021/10/09 05:27:52;;;;;;;2.88;1.75;;;8.40;1.00;;;;;;4995603;28;20045;-70
2021/10/09 05:30:18;;;;;;;2.38;1.75;;;8.60;1.00;;;;;;4995380;28;20039;-69
2021/10/09 05:32:48;;;;;;;2.90;2.00;;;8.60;1.00;;;;;;4995516;28;20049;-69
2021/10/09 05:35:14;;;;;;;3.25;2.13;;;8.50;1.00;;;;;;4995771;28;20038;-69
2021/10/09 05:37:40;;;;;;;2.25;1.92;;;8.50;1.00;;;;;;4995441;28;20045;-69
2021/10/09 05:40:07;;;;;;;2.83;1.83;;;8.50;1.60;;;;;;4995601;28;20049;-69
2021/10/09 05:42:33;;;;;;;3.60;2.05;;;8.50;1.40;;;;;;4994995;28;21046;-70
2021/10/09 05:44:59;;;;;;;2.53;1.70;;;8.50;2.20;;;;;;4995618;28;20129;-70
2021/10/09 05:47:27;;;;;;;2.30;1.90;;;8.60;1.80;;;;;;4995203;28;20050;-69
2021/10/09 05:49:55;;;;;;;5.65;2.30;;;8.50;2.40;;;;;;4995169;28;20082;-69
2021/10/09 05:52:32;;;;;;;2.97;2.58;;;8.70;1.00;;;;;;4994924;28;20047;-69
2021/10/09 05:55:12;;;;;;;2.20;1.98;;;8.90;1.00;;;;;;4994929;28;20495;-70
2021/10/09 05:57:44;;;;;;;4.17;2.17;;;8.90;1.00;;;;;;4995235;28;20042;-70
2021/10/09 06:42:04;;;;;;;2.88;2.00;;;9.30;1.00;;;;;;4998048;28;20065;-69
2021/10/09 07:00:00;;;;;;;4.05;2.65;;;9.60;1.00;;;;;;4981248;28;20046;-70
2021/10/09 07:02:26;;;;;;;2.70;1.98;;;9.70;1.00;;;;;;4985713;28;20034;-69
2021/10/09 07:04:52;;;;;;;3.35;2.63;;;9.80;1.00;;;;;;4986788;28;20039;-69
2021/10/09 07:07:19;;;;;;;2.38;2.10;;;9.80;1.00;;;;;;4984883;28;20049;-69
2021/10/09 07:09:45;;;;;;;5.50;2.20;;;9.80;1.00;;;;;;4984881;28;20057;-69
2021/10/09 07:12:11;;;;;;;4.68;2.25;;;9.80;1.00;;;;;;4982786;28;20043;-69
2021/10/09 07:14:37;;;;;;;2.63;2.17;;;9.90;1.00;;;;;;4982369;28;20073;-69
2021/10/09 07:17:03;;;;;;;2.83;2.33;;;10.00;1.00;;;;;;4976776;28;20066;-69
2021/10/09 07:19:29;;;;;;;3.58;2.50;;;10.10;1.00;;;;;;4977493;28;20585;-69
2021/10/09 07:21:55;;;;;;;5.55;3.13;;;10.20;1.00;;;;;;4977891;28;20043;-69
2021/10/09 07:24:21;;;;;;;3.60;2.53;;;10.30;1.00;;;;;;4977746;28;20043;-69
2021/10/09 07:26:46;;;;;;;3.38;2.80;;;10.40;1.00;;;;;;4977789;28;20039;-69
2021/10/09 07:29:12;;;;;;;5.35;2.90;;;10.50;1.00;;;;;;4978314;28;20110;-69
2021/10/09 07:31:39;;;;;;;4.00;2.58;;;10.50;1.00;;;;;;4986348;28;20505;-69
2021/10/09 07:34:05;;;;;;;8.90;3.00;;;10.60;1.00;;;;;;4983892;28;20124;-69
2021/10/09 07:36:31;;;;;;;4.30;3.17;;;10.70;1.00;;;;;;4983371;28;20034;-69
2021/10/09 07:38:57;;;;;;;4.53;2.80;;;10.80;1.00;;;;;;4973487;28;20046;-71
2021/10/09 07:41:26;;;;;;;4.68;2.90;;;10.90;1.00;;;;;;4983236;28;20068;-71
2021/10/09 07:43:52;;;;;;;3.78;2.63;;;11.00;1.00;;;;;;4980752;28;20063;-70
2021/10/09 07:46:56;;;;;;;3.88;3.13;;;11.10;1.00;;;;;;4968211;28;20030;-71
2021/10/09 07:49:24;;;;;;;3.70;3.13;;;11.20;1.00;;;;;;4962556;28;20580;-70
2021/10/09 07:52:07;;;;;;;5.28;3.40;;;11.30;1.00;;;;;;4976944;28;20038;-70
2021/10/09 07:54:36;;;;;;;5.15;3.92;;;11.40;1.00;;;;;;4968298;28;20109;-71
2021/10/09 07:57:34;;;;;;;;;;;;;;;;;;;;;
2021/10/09 08:00:03;;;;;;;9.18;4.68;;;11.70;1.00;;;;;;4984980;28;20042;-72
2021/10/09 08:02:32;;;;;;;7.80;4.85;;;11.80;1.00;;;;;;4981769;28;20039;-72
2021/10/09 08:05:04;;;;;;;7.30;4.80;;;11.90;1.00;;;;;;4974499;28;20046;-72
2021/10/09 08:07:39;;;;;;;9.00;5.00;;;12.00;1.00;;;;;;4981809;28;20174;-71
2021/10/09 08:10:05;;;;;;;8.65;5.13;;;12.10;1.00;;;;;;4966926;28;20046;-72
2021/10/09 08:12:45;;;;;;;7.25;4.65;;;12.20;1.00;;;;;;4984599;28;20052;-70
2021/10/09 08:15:25;;;;;;;7.78;4.57;;;12.20;1.00;;;;;;4985702;28;20045;-71
2021/10/09 08:17:53;;;;;;;5.82;4.30;;;12.40;1.00;;;;;;4982317;28;20077;-71
2021/10/09 08:20:28;;;;;;;7.15;4.50;;;12.50;1.00;;;;;;4984277;28;20046;-71
2021/10/09 08:23:05;;;;;;;4.80;4.30;;;12.70;1.00;;;;;;4982650;28;20053;-71
2021/10/09 08:39:43;;;;;;;5.18;3.40;;;13.10;1.00;;;;;;4984656;28;20046;-69
2021/10/09 08:42:09;;;;;;;3.42;3.13;;;13.20;1.00;;;;;;4984110;28;20050;-69
2021/10/09 08:44:38;;;;;;;4.00;3.42;;;13.30;1.00;;;;;;4981945;28;20054;-69
2021/10/09 08:47:04;;;;;;;6.97;4.28;;;13.30;1.00;;;;;;4981275;28;20043;-68
2021/10/09 08:49:33;;;;;;;5.88;3.50;;;13.50;1.00;;;;;;4985620;28;20034;-69
2021/10/09 08:52:00;;;;;;;5.10;2.85;;;13.60;1.00;;;;;;4962974;28;20038;-70
2021/10/09 08:54:39;;;;;;;4.05;2.90;;;13.80;1.00;;;;;;4980718;28;20093;-70
2021/10/09 08:57:23;;;;;;;3.22;2.60;;;13.90;1.00;;;;;;4988069;28;20081;-69
2021/10/09 09:00:00;;;;;;;4.72;3.55;;;14.00;1.00;;;;;;4964418;28;20432;-70
2021/10/09 09:05:43;;;;;;;4.90;3.58;;;14.30;1.00;;;;;;4974902;28;20043;-70
2021/10/09 09:08:12;;;;;;;4.63;3.40;;;14.40;1.00;;;;;;4989316;28;20054;-70
2021/10/09 09:36:50;;;;;;;2.53;1.70;;;15.10;1.00;;;;;;4979096;28;20406;-70
2021/10/09 09:39:05;;;;;;;3.75;1.73;;;15.00;1.00;;;;;;4980812;28;20506;-68
2021/10/09 09:41:45;;;;;;;2.90;1.65;;;15.00;1.00;;;;;;4981615;28;20082;-68
2021/10/09 09:44:14;;;;;;;1.70;1.50;;;15.00;1.00;;;;;;4981608;28;20054;-68
2021/10/09 09:46:40;;;;;;;2.08;1.70;;;15.30;1.00;;;;;;4992944;28;20597;-68
2021/10/09 09:49:06;;;;;;;2.80;2.03;;;15.50;1.00;;;;;;4985346;28;20133;-68
2021/10/09 09:51:37;;;;;;;2.25;1.70;;;15.70;1.00;;;;;;4981049;28;20117;-68
2021/10/09 09:54:04;;;;;;;3.67;1.63;;;15.90;1.00;;;;;;4981295;28;20050;-68
2021/10/09 09:56:30;;;;;;;5.55;2.00;;;15.90;1.00;;;;;;4981519;28;20050;-68
2021/10/09 09:58:59;;;;;;;3.70;1.75;;;15.90;1.00;;;;;;4981867;28;20046;-68
2021/10/09 10:01:32;;;;;;;2.10;1.90;;;15.90;1.00;;;;;;4980858;28;20039;-70
2021/10/09 10:04:02;;;;;;;4.57;2.05;;;15.90;1.00;;;;;;4991016;28;20045;-69
2021/10/09 10:06:28;;;;;;;2.70;2.15;;;15.80;1.00;;;;;;4992319;28;20045;-72
2021/10/09 10:08:56;;;;;;;4.32;2.15;;;15.80;1.00;;;;;;4987505;28;20063;-69
2021/10/09 10:11:22;;;;;;;3.63;2.20;;;15.50;1.00;;;;;;4991724;28;20038;-69
2021/10/09 10:13:49;;;;;;;4.18;1.83;;;15.50;1.00;;;;;;4979840;28;20073;-69
2021/10/09 10:16:16;;;;;;;2.53;2.30;;;15.50;1.00;;;;;;4979843;28;20125;-69
2021/10/09 10:18:45;;;;;;;2.65;2.13;;;15.60;1.00;;;;;;4981413;28;20129;-69
2021/10/09 10:21:16;;;;;;;3.28;2.00;;;15.80;1.00;;;;;;4981546;28;20035;-69
2021/10/09 10:23:50;;;;;;;3.08;2.13;;;15.90;1.00;;;;;;4980980;28;20066;-69
2021/10/09 10:26:31;;;;;;;3.40;1.80;;;16.00;1.00;;;;;;4987336;28;20043;-69
2021/10/09 10:28:56;;;;;;;2.90;1.80;;;16.20;1.00;;;;;;4987871;28;20042;-69
2021/10/09 10:31:23;;;;;;;3.63;2.40;;;16.30;1.00;;;;;;4986942;28;20038;-69
2021/10/09 10:34:00;;;;;;;2.22;2.03;;;16.20;1.00;;;;;;4989023;28;20038;-69
2021/10/09 10:36:42;;;;;;;3.00;2.20;;;16.30;1.00;;;;;;4979959;28;20121;-69
2021/10/09 10:39:09;;;;;;;3.58;2.42;;;16.20;1.00;;;;;;4979789;28;20133;-69
2021/10/09 10:41:43;;;;;;;3.42;2.60;;;16.30;1.00;;;;;;4980264;28;20050;-69
2021/10/09 10:44:12;;;;;;;4.97;3.10;;;16.20;1.00;;;;;;4981839;28;20050;-69
2021/10/09 10:46:47;;;;;;;3.38;2.80;;;16.30;1.00;;;;;;4981579;28;20047;-69
2021/10/09 10:56:59;;;;;;;3.83;2.65;;;16.60;1.00;;;;;;4978566;28;20426;-69
2021/10/09 10:59:56;;;;;;;3.78;2.40;;;16.50;1.00;;;;;;4978269;28;20043;-69
2021/10/09 11:02:23;;;;;;;3.15;2.42;;;16.60;1.00;;;;;;4978442;28;20097;-69
2021/10/09 11:04:52;;;;;;;3.65;2.60;;;16.70;1.00;;;;;;4978302;28;20054;-69
2021/10/09 11:07:20;;;;;;;3.55;2.75;;;16.80;1.00;;;;;;4979521;28;20038;-68
2021/10/09 11:09:46;;;;;;;4.55;2.30;;;16.80;1.00;;;;;;4982110;28;20474;-69
2021/10/09 11:12:21;;;;;;;3.83;2.03;;;16.80;1.00;;;;;;4978386;28;20117;-69
2021/10/09 11:14:47;;;;;;;3.20;2.03;;;16.70;1.00;;;;;;4978090;28;20058;-69
2021/10/09 11:17:13;;;;;;;6.75;2.60;;;16.60;1.00;;;;;;4978092;28;20082;-69
2021/10/09 11:19:47;;;;;;;4.30;1.90;;;16.70;1.00;;;;;;4978321;28;20038;-69
2021/10/09 11:22:15;;;;;;;3.35;2.45;;;16.70;1.00;;;;;;4978336;28;20212;-69
2021/10/09 11:24:46;;;;;;;3.58;2.33;;;16.80;1.00;;;;;;4978242;28;20039;-69
2021/10/09 11:27:14;;;;;;;3.55;2.25;;;16.80;1.00;;;;;;4977807;28;20038;-69
2021/10/09 11:29:41;;;;;;;2.70;2.10;;;16.90;1.00;;;;;;4977831;28;20034;-69
2021/10/09 11:32:09;;;;;;;2.72;2.33;;;17.10;1.00;;;;;;4977950;28;20149;-69
2021/10/09 11:35:09;;;;;;;3.85;2.50;;;17.20;1.00;;;;;;4978319;28;20039;-69
2021/10/09 11:37:50;;;;;;;2.67;2.30;;;17.10;1.00;;;;;;4945647;28;20137;-69
2021/10/09 11:40:53;;;;;;;2.75;2.25;;;17.20;1.00;;;;;;4977932;28;20043;-69
2021/10/09 11:45:53;;;;;;;7.20;2.25;;;17.40;1.00;;;;;;4977905;28;20027;-69
2021/10/09 11:54:01;;;;;;;2.00;1.52;;;17.70;1.00;;;;;;4977184;28;20042;-69
2021/10/09 11:56:27;;;;;;;1.70;1.60;;;17.50;1.00;;;;;;4977284;28;20126;-69
2021/10/09 11:58:57;;;;;;;1.55;1.30;;;17.70;1.00;;;;;;4977579;28;20154;-69
2021/10/09 12:01:27;;;;;;;3.58;1.83;;;17.50;1.00;;;;;;4977345;28;20038;-69
2021/10/09 12:03:53;;;;;;;1.83;1.45;;;17.50;1.00;;;;;;4976978;28;20043;-69
2021/10/09 12:06:19;;;;;;;1.75;1.55;;;17.40;1.00;;;;;;4977299;28;20070;-69
2021/10/09 12:08:53;;;;;;;1.90;1.70;;;17.40;1.00;;;;;;4977419;28;20047;-68
2021/10/09 12:11:26;;;;;;;1.95;1.40;;;17.30;1.00;;;;;;4977680;28;20034;-69
2021/10/09 12:13:58;;;;;;;2.58;1.55;;;17.10;1.00;;;;;;4977962;28;20096;-69
2021/10/09 12:16:25;;;;;;;2.67;1.50;;;17.20;1.00;;;;;;4976837;28;20046;-69
2021/10/09 12:18:54;;;;;;;2.13;1.63;;;17.30;1.00;;;;;;4976835;28;20047;-69
2021/10/09 12:21:31;;;;;;;1.73;1.63;;;17.20;1.00;;;;;;4977037;28;20097;-69
2021/10/09 12:23:58;;;;;;;1.85;1.75;;;17.20;1.00;;;;;;4977060;28;20065;-69
2021/10/09 12:26:26;;;;;;;1.73;1.63;;;16.80;1.00;;;;;;4976885;28;20529;-69
2021/10/09 12:29:06;;;;;;;1.98;1.80;;;16.50;1.00;;;;;;4977002;28;20101;-69
2021/10/09 12:31:37;;;;;;;2.78;1.75;;;16.00;1.00;;;;;;4976804;28;20039;-69
2021/10/09 12:34:03;;;;;;;2.75;2.05;;;15.80;1.00;;;;;;4976643;28;20039;-69
2021/10/09 12:36:37;;;;;;;2.30;1.90;;;15.60;1.00;;;;;;4976562;28;20035;-69
2021/10/09 12:39:27;;;;;;;2.15;1.95;;;15.70;1.00;;;;;;4976784;28;20054;-69
2021/10/09 12:41:54;;;;;;;1.77;1.67;;;15.70;1.00;;;;;;4976906;28;20065;-69
2021/10/09 12:44:21;;;;;;;3.50;1.88;;;16.10;1.00;;;;;;4976631;28;20082;-69
2021/10/09 12:46:48;;;;;;;2.83;1.80;;;16.50;1.00;;;;;;4976141;28;20126;-69
2021/10/09 12:49:14;;;;;;;2.35;1.80;;;16.80;1.00;;;;;;4976654;28;20130;-69
2021/10/09 12:51:40;;;;;;;1.98;1.85;;;17.00;1.00;;;;;;4975953;28;20031;-69
2021/10/09 12:54:07;;;;;;;2.28;1.80;;;17.10;1.00;;;;;;4976562;28;20430;-69
2021/10/09 12:56:34;;;;;;;2.17;1.98;;;17.20;1.00;;;;;;4976500;28;20045;-69
2021/10/09 12:59:00;;;;;;;1.83;1.70;;;17.10;1.00;;;;;;4976894;28;20038;-69
2021/10/09 13:01:26;;;;;;;2.58;1.60;;;16.80;1.00;;;;;;4975685;28;20410;-69
2021/10/09 13:03:52;;;;;;;2.97;2.05;;;16.70;1.00;;;;;;4976153;28;20129;-69
2021/10/09 13:06:18;;;;;;;2.40;1.80;;;16.50;1.00;;;;;;4976099;28;20034;-69
2021/10/09 13:08:44;;;;;;;2.33;1.73;;;16.40;1.00;;;;;;4976118;28;20052;-69
2021/10/09 13:11:10;;;;;;;2.10;1.90;;;16.30;1.00;;;;;;4976112;28;20038;-69
2021/10/09 13:13:36;;;;;;;2.13;1.92;;;16.40;1.00;;;;;;4976242;28;20093;-69
2021/10/09 13:16:02;;;;;;;2.58;1.83;;;16.40;1.00;;;;;;4975362;28;20035;-69
2021/10/09 13:18:28;;;;;;;3.38;1.95;;;16.50;1.00;;;;;;4976093;28;20043;-69
2021/10/09 13:20:54;;;;;;;2.75;2.25;;;16.60;1.00;;;;;;4975641;28;20046;-69
2021/10/09 13:23:19;;;;;;;4.03;2.30;;;16.60;1.00;;;;;;4975839;28;20073;-69
2021/10/09 13:25:45;;;;;;;3.35;2.00;;;16.40;1.00;;;;;;4975944;28;20046;-69
2021/10/09 13:28:11;;;;;;;2.83;1.80;;;16.30;1.00;;;;;;4976044;28;20055;-69
2021/10/09 13:30:37;;;;;;;2.67;2.25;;;16.10;1.00;;;;;;4975576;28;20493;-69
2021/10/09 13:33:03;;;;;;;2.25;2.03;;;16.00;1.00;;;;;;4975509;28;20071;-69
2021/10/09 13:35:30;;;;;;;3.75;1.85;;;15.80;1.00;;;;;;4975742;28;20043;-69
2021/10/09 13:38:01;;;;;;;2.33;1.95;;;15.80;1.00;;;;;;4975635;28;20042;-69
2021/10/09 13:40:27;;;;;;;5.57;2.17;;;15.70;1.00;;;;;;4975317;28;20043;-69
2021/10/09 13:42:53;;;;;;;3.33;1.95;;;15.60;1.00;;;;;;4990654;28;20149;-69
2021/10/09 13:45:19;;;;;;;2.40;2.20;;;15.60;1.00;;;;;;4975280;28;20630;-69
2021/10/09 13:47:45;;;;;;;2.22;2.03;;;15.60;1.00;;;;;;4975937;28;20043;-69
2021/10/09 13:50:12;;;;;;;2.60;2.00;;;15.60;1.00;;;;;;4975295;28;20035;-69
2021/10/09 13:52:39;;;;;;;2.45;1.90;;;15.60;1.00;;;;;;4975543;28;20125;-69
2021/10/09 13:55:06;;;;;;;2.13;1.98;;;15.60;1.00;;;;;;4975590;28;20532;-69
2021/10/09 13:57:31;;;;;;;3.22;1.92;;;15.60;1.00;;;;;;4975566;28;20101;-69
2021/10/09 13:59:57;;;;;;;2.00;1.90;;;15.60;1.00;;;;;;4975227;28;20454;-69
2021/10/09 14:02:24;;;;;;;2.58;2.13;;;15.60;1.00;;;;;;4975052;28;20066;-69
2021/10/09 14:04:50;;;;;;;3.58;2.83;;;15.70;1.00;;;;;;4975459;28;20065;-68
2021/10/09 14:07:16;;;;;;;3.38;2.50;;;15.70;1.00;;;;;;4975519;28;20045;-69
2021/10/09 14:09:42;;;;;;;3.63;2.72;;;15.80;1.00;;;;;;4973348;28;20038;-69
2021/10/09 14:12:09;;;;;;;4.88;3.17;;;15.80;1.00;;;;;;4972649;28;20064;-69
2021/10/09 14:14:35;;;;;;;3.38;2.42;;;15.70;1.00;;;;;;4974428;28;20041;-69
2021/10/09 14:17:01;;;;;;;3.40;2.70;;;15.60;1.00;;;;;;4972969;28;20043;-69
2021/10/09 14:19:26;;;;;;;3.22;2.35;;;15.40;1.00;;;;;;4974470;28;20494;-69
2021/10/09 14:21:52;;;;;;;3.45;2.10;;;15.50;1.00;;;;;;4975331;28;20058;-69
2021/10/09 14:24:21;;;;;;;3.70;2.17;;;15.40;1.00;;;;;;4957826;28;20031;-69
2021/10/09 14:26:47;;;;;;;3.72;2.80;;;15.40;1.00;;;;;;4976244;28;20046;-69
2021/10/09 14:29:13;;;;;;;3.05;2.25;;;15.40;1.00;;;;;;4978907;28;20053;-69
2021/10/09 14:31:39;;;;;;;3.58;2.83;;;15.50;1.00;;;;;;4978673;28;20119;-69
2021/10/09 14:34:05;;;;;;;3.65;2.53;;;15.50;1.00;;;;;;4978818;28;20565;-69
2021/10/09 14:36:31;;;;;;;3.60;2.30;;;15.50;1.00;;;;;;4978543;28;20039;-69
2021/10/09 14:38:57;;;;;;;3.30;2.65;;;15.50;1.00;;;;;;4978969;28;20384;-69
2021/10/09 14:41:23;;;;;;;2.67;2.47;;;15.40;1.00;;;;;;4978593;28;20097;-69
2021/10/09 14:43:49;;;;;;;4.40;3.05;;;15.40;1.00;;;;;;4978399;28;20063;-69
2021/10/09 14:48:51;;;;;;;2.35;2.13;;;15.30;1.00;;;;;;4978328;28;20173;-69
2021/10/09 15:19:16;;;;;;;3.25;2.05;;;15.60;1.00;;;;;;4937016;29;20415;-69
2021/10/09 15:21:42;;;;;;;3.53;2.38;;;15.40;1.00;;;;;;4960859;28;20039;-69
2021/10/09 15:24:08;;;;;;;3.15;2.70;;;15.30;1.00;;;;;;4977835;28;20078;-69
2021/10/09 15:26:34;;;;;;;3.63;3.30;;;15.20;1.00;;;;;;4977531;28;20041;-69
2021/10/09 15:29:00;;;;;;;3.15;2.58;;;15.10;1.00;;;;;;4977830;28;20078;-69
2021/10/09 15:31:26;;;;;;;3.22;2.13;;;15.10;1.00;;;;;;4977345;28;20100;-69
2021/10/09 15:33:52;;;;;;;2.90;2.53;;;15.20;1.00;;;;;;4972598;28;20046;-69
2021/10/09 15:36:18;;;;;;;2.92;2.45;;;15.30;1.00;;;;;;4960439;28;20035;-69
2021/10/09 15:38:43;;;;;;;2.80;2.33;;;15.40;1.00;;;;;;4977331;28;20050;-69
2021/10/09 15:41:09;;;;;;;3.83;2.65;;;15.40;1.00;;;;;;4976835;28;20043;-69
2021/10/09 15:43:35;;;;;;;2.65;2.30;;;15.40;1.00;;;;;;4989264;28;20116;-69